Decoded Metar for LZSL (SLIAC in SLOVAKIA) (IATA:SLD) | Meteo·Mobile Aviation Weather
aviador You're here:

LZSL Decoded Metar

SLIAC in SLOVAKIA
Report Time2018-08-22 04:00:00
UTC Time2018-08-22 04:30:16
Flight Rules vfr VFR
WindCalm
Visibility9999 m
Phenomena:N/A
Clouds:Broken 052 Hf
Expected CloudBase > 800 ft AGL from Temp-Dew spread
Ceiling5,200 ft
Temp16°C (ISA +3)
Dew Point14°C (88% RH)
QNH1020 hPa
Density Alt1,368 ft
Elevation1,027 ft
Report Wrong Elevation
Raw Report
LZSL 220400Z 00000KT 9999 BKN052 16/14 Q1020=

Extra information for LZSL:More info

Metar Taf Metar & Taf Last 4 Metars F.Rules Stats Wind Profile Meteogram Temp Stats Airport Information Weather charts Add Link Nearby VenuesMetar ALERT Operation Metar Decoded Social comments